createdAt,value
2023-08-14T00:00:18.730Z,64.25
2023-08-14T00:03:25.861Z,64.43
2023-08-14T00:06:13.834Z,64.42
2023-08-14T00:09:00.570Z,64.83
2023-08-14T00:11:47.593Z,64.71
2023-08-14T00:14:34.254Z,65.11
2023-08-14T00:17:20.793Z,65.40
2023-08-14T00:20:08.966Z,65.52
2023-08-14T00:22:55.554Z,65.70
2023-08-14T00:25:42.605Z,65.62
2023-08-14T00:28:29.918Z,65.86
2023-08-14T00:31:18.431Z,65.62
2023-08-14T00:34:05.806Z,65.85
2023-08-14T00:36:52.716Z,65.75
2023-08-14T00:39:39.849Z,65.76
2023-08-14T00:42:29.353Z,65.60
2023-08-14T00:45:17.236Z,65.53
2023-08-14T00:48:06.279Z,65.70
2023-08-14T00:50:56.202Z,65.60
2023-08-14T00:53:42.694Z,65.56
2023-08-14T00:56:30.553Z,65.61
2023-08-14T00:59:16.895Z,65.65
2023-08-14T01:02:03.823Z,65.67
2023-08-14T01:04:50.575Z,65.38
2023-08-14T01:07:38.131Z,65.29
2023-08-14T01:10:28.456Z,65.37
2023-08-14T01:13:31.414Z,65.24
2023-08-14T01:16:27.563Z,65.10
2023-08-14T01:19:20.698Z,64.98
2023-08-14T01:22:29.049Z,64.65
2023-08-14T01:25:33.005Z,64.53
2023-08-14T01:28:19.841Z,64.45
2023-08-14T01:31:06.695Z,64.34
2023-08-14T01:33:54.851Z,64.21
2023-08-14T01:36:50.117Z,64.31
2023-08-14T01:39:43.577Z,64.37
2023-08-14T01:42:37.131Z,64.48
2023-08-14T01:45:25.822Z,64.47
2023-08-14T01:48:14.989Z,64.47
2023-08-14T01:51:02.396Z,64.34
2023-08-14T01:53:49.382Z,64.34
2023-08-14T01:56:36.370Z,64.30
2023-08-14T01:59:49.974Z,64.33
2023-08-14T02:02:37.183Z,64.61
2023-08-14T02:05:24.077Z,64.54
2023-08-14T02:08:11.114Z,64.44
2023-08-14T02:10:57.791Z,64.26
2023-08-14T02:13:44.539Z,64.21
2023-08-14T02:16:31.096Z,64.13
2023-08-14T02:19:20.425Z,64.26
2023-08-14T02:22:07.246Z,64.38
2023-08-14T02:24:54.326Z,64.40
2023-08-14T02:27:41.013Z,64.49
2023-08-14T02:30:27.934Z,64.50
2023-08-14T02:33:14.455Z,64.34
2023-08-14T02:36:01.309Z,64.12
2023-08-14T02:38:48.152Z,64.27
2023-08-14T02:41:34.877Z,64.14
2023-08-14T02:44:21.711Z,64.21
2023-08-14T02:47:08.770Z,64.40
2023-08-14T02:49:56.913Z,64.25
2023-08-14T02:52:46.498Z,64.36
2023-08-14T02:55:33.977Z,64.29
2023-08-14T02:58:21.265Z,64.12
2023-08-14T03:01:08.286Z,64.16
2023-08-14T03:03:55.446Z,64.06
2023-08-14T03:06:42.195Z,64.23
2023-08-14T03:09:29.221Z,64.04
2023-08-14T03:12:16.545Z,64.08
2023-08-14T03:15:07.742Z,64.02
2023-08-14T03:17:54.795Z,63.99
2023-08-14T03:20:41.771Z,64.26
2023-08-14T03:23:28.784Z,64.57
2023-08-14T03:26:15.585Z,64.60
2023-08-14T03:29:02.233Z,64.38
2023-08-14T03:31:49.812Z,64.37
2023-08-14T03:34:36.696Z,64.14
2023-08-14T03:37:25.890Z,64.09
2023-08-14T03:40:12.564Z,63.93
2023-08-14T03:43:00.677Z,64.05
2023-08-14T03:45:47.769Z,64.21
2023-08-14T03:48:39.189Z,64.36
2023-08-14T03:51:47.441Z,64.71
2023-08-14T03:54:34.678Z,64.78
2023-08-14T03:57:24.872Z,64.66
2023-08-14T04:00:12.007Z,64.52
2023-08-14T04:03:03.569Z,64.42
2023-08-14T04:05:56.300Z,64.56
2023-08-14T04:08:45.107Z,64.51
2023-08-14T04:11:35.975Z,64.46
2023-08-14T04:14:24.530Z,64.64
2023-08-14T04:17:11.408Z,64.54
2023-08-14T04:19:58.234Z,64.39
2023-08-14T04:22:46.635Z,64.44
2023-08-14T04:25:33.397Z,64.30
2023-08-14T04:28:20.885Z,64.27
2023-08-14T04:31:08.577Z,64.12
2023-08-14T04:33:57.215Z,64.16
2023-08-14T04:36:45.022Z,64.04
2023-08-14T04:39:32.820Z,64.18
2023-08-14T04:42:19.675Z,64.13
2023-08-14T04:45:07.579Z,64.06
2023-08-14T04:47:57.331Z,64.13
2023-08-14T04:50:45.488Z,64.08
2023-08-14T04:53:33.993Z,64.02
2023-08-14T04:56:21.068Z,63.74
2023-08-14T04:59:08.339Z,63.71
2023-08-14T05:01:57.692Z,63.60
2023-08-14T05:04:45.731Z,63.62
2023-08-14T05:07:33.055Z,63.56
2023-08-14T05:10:21.788Z,63.51
2023-08-14T05:13:08.566Z,63.13
2023-08-14T05:16:07.064Z,63.02
2023-08-14T05:18:57.453Z,62.83
2023-08-14T05:21:45.977Z,63.13
2023-08-14T05:24:32.975Z,63.25
2023-08-14T05:27:19.576Z,63.14
2023-08-14T05:30:09.442Z,63.13
2023-08-14T05:32:56.010Z,62.93
2023-08-14T05:35:42.990Z,62.88
2023-08-14T05:38:29.790Z,62.74
2023-08-14T05:41:19.471Z,62.72
2023-08-14T05:44:08.090Z,62.55
2023-08-14T05:46:58.231Z,62.54
2023-08-14T05:49:47.329Z,62.43
2023-08-14T05:52:33.881Z,62.76
2023-08-14T05:55:20.936Z,62.60
2023-08-14T05:58:07.980Z,62.16
2023-08-14T06:00:54.757Z,62.23
2023-08-14T06:03:44.955Z,62.06
2023-08-14T06:06:34.633Z,61.83
2023-08-14T06:12:12.684Z,61.99
2023-08-14T06:14:59.988Z,61.99
2023-08-14T06:17:47.996Z,61.76
2023-08-14T06:20:34.587Z,61.32
2023-08-14T06:23:23.890Z,61.57
2023-08-14T06:26:10.785Z,61.73
2023-08-14T06:28:57.368Z,61.57
2023-08-14T06:31:45.287Z,61.41
2023-08-14T06:34:34.493Z,60.88
2023-08-14T06:37:21.141Z,60.61
2023-08-14T06:40:11.462Z,60.22
2023-08-14T06:42:57.986Z,60.15
2023-08-14T06:45:50.049Z,60.12
2023-08-14T06:48:36.754Z,60.03
2023-08-14T06:51:24.883Z,59.81
2023-08-14T06:54:12.075Z,59.37
2023-08-14T06:57:02.092Z,59.33
2023-08-14T06:59:48.778Z,59.53
2023-08-14T07:02:35.965Z,59.66
2023-08-14T07:05:23.031Z,59.16
2023-08-14T07:08:11.248Z,59.50
2023-08-14T07:11:00.474Z,59.53
2023-08-14T07:13:47.113Z,59.63
2023-08-14T07:16:34.059Z,59.23
2023-08-14T07:19:20.890Z,59.01
2023-08-14T07:22:07.911Z,58.84
2023-08-14T07:24:54.758Z,58.56
2023-08-14T07:27:41.694Z,58.54
2023-08-14T07:30:31.304Z,58.36
2023-08-14T07:33:17.866Z,57.66
2023-08-14T07:36:04.835Z,57.35
2023-08-14T07:38:53.392Z,56.96
2023-08-14T07:41:40.117Z,56.93
2023-08-14T07:44:26.933Z,56.25
2023-08-14T07:47:16.352Z,55.75
2023-08-14T07:50:03.392Z,55.11
2023-08-14T07:52:50.369Z,54.20
2023-08-14T07:55:38.309Z,53.53
2023-08-14T07:58:25.058Z,53.29
2023-08-14T08:01:11.837Z,52.93
2023-08-14T08:03:58.975Z,53.02
2023-08-14T08:06:46.137Z,52.67
2023-08-14T08:09:33.192Z,52.54
2023-08-14T08:12:20.542Z,52.16
2023-08-14T08:15:07.958Z,52.31
2023-08-14T08:17:54.917Z,52.85
2023-08-14T08:20:41.929Z,52.59
2023-08-14T08:23:29.014Z,51.79
2023-08-14T08:26:16.574Z,51.55
2023-08-14T08:29:04.989Z,50.62
2023-08-14T08:31:51.925Z,50.61
2023-08-14T08:34:38.883Z,50.58
2023-08-14T08:37:25.849Z,50.37
2023-08-14T08:40:13.571Z,50.17
2023-08-14T08:43:01.639Z,49.14
2023-08-14T08:45:51.533Z,48.94
2023-08-14T08:48:46.126Z,48.11
2023-08-14T08:51:34.602Z,48.05
2023-08-14T08:54:21.514Z,47.64
2023-08-14T08:57:08.401Z,47.31
2023-08-14T08:59:57.016Z,46.74
2023-08-14T09:02:47.338Z,46.86
2023-08-14T09:05:34.679Z,46.46
2023-08-14T09:08:21.758Z,46.71
2023-08-14T09:11:08.445Z,46.78
2023-08-14T09:13:56.232Z,47.54
2023-08-14T09:16:42.977Z,47.10
2023-08-14T09:19:29.904Z,46.80
2023-08-14T09:22:17.308Z,47.33
2023-08-14T09:25:04.283Z,46.70
2023-08-14T09:27:51.466Z,46.07
2023-08-14T09:30:39.059Z,46.01
2023-08-14T09:33:26.482Z,45.95
2023-08-14T09:36:18.049Z,45.90
2023-08-14T09:39:07.648Z,46.41
2023-08-14T09:41:54.971Z,45.70
2023-08-14T09:44:42.415Z,45.17
2023-08-14T09:47:32.378Z,45.12
2023-08-14T09:50:21.413Z,44.88
2023-08-14T09:53:08.192Z,44.47
2023-08-14T09:55:55.277Z,44.38
2023-08-14T09:58:42.759Z,44.42
2023-08-14T10:01:29.927Z,44.27
2023-08-14T10:04:18.474Z,44.34
2023-08-14T10:07:08.349Z,43.96
2023-08-14T10:09:58.537Z,44.10
2023-08-14T10:12:53.278Z,44.12
2023-08-14T10:15:43.848Z,44.00
2023-08-14T10:18:34.240Z,43.83
2023-08-14T10:21:22.126Z,43.95
2023-08-14T10:24:09.344Z,43.92
2023-08-14T10:26:58.109Z,44.27
2023-08-14T10:29:46.234Z,44.18
2023-08-14T10:32:34.407Z,44.11
2023-08-14T10:35:22.119Z,43.81
2023-08-14T10:38:11.329Z,43.38
2023-08-14T10:41:18.125Z,42.74
2023-08-14T10:44:11.883Z,42.58
2023-08-14T10:47:05.930Z,42.82
2023-08-14T10:49:54.385Z,42.92
2023-08-14T10:52:45.445Z,42.28
2023-08-14T10:55:46.576Z,42.80
2023-08-14T10:58:34.469Z,42.78
2023-08-14T11:01:21.476Z,43.08
2023-08-14T11:04:22.295Z,43.03
2023-08-14T11:07:13.005Z,43.00
2023-08-14T11:10:03.292Z,42.63
2023-08-14T11:12:52.167Z,42.36
2023-08-14T11:15:42.964Z,42.34
2023-08-14T11:18:30.472Z,42.18
2023-08-14T11:21:31.452Z,42.30
2023-08-14T11:24:21.387Z,42.13
2023-08-14T11:27:08.625Z,41.99
2023-08-14T11:29:57.997Z,42.05
2023-08-14T11:32:47.395Z,41.65
2023-08-14T11:35:34.600Z,41.26
2023-08-14T11:38:23.479Z,41.38
2023-08-14T11:41:10.745Z,41.00
2023-08-14T11:43:57.795Z,40.97
2023-08-14T11:46:45.324Z,41.12
2023-08-14T11:49:36.018Z,40.81
2023-08-14T11:52:24.192Z,40.71
2023-08-14T11:55:11.784Z,40.62
2023-08-14T11:58:01.609Z,40.23
2023-08-14T12:00:52.703Z,40.33
2023-08-14T12:03:39.496Z,40.67
2023-08-14T12:06:26.538Z,40.66
2023-08-14T12:09:13.653Z,40.31
2023-08-14T12:12:00.924Z,40.12
2023-08-14T12:14:52.244Z,39.78
2023-08-14T12:17:43.830Z,39.56
2023-08-14T12:20:35.377Z,39.59
2023-08-14T12:23:26.128Z,39.40
2023-08-14T12:26:13.217Z,39.14
2023-08-14T12:29:00.168Z,38.57
2023-08-14T12:31:48.103Z,38.85
2023-08-14T12:34:37.691Z,38.68
2023-08-14T12:37:28.882Z,38.27
2023-08-14T12:40:16.771Z,38.68
2023-08-14T12:43:04.530Z,38.53
2023-08-14T12:45:51.146Z,38.63
2023-08-14T12:48:38.228Z,38.17
2023-08-14T12:51:25.244Z,38.39
2023-08-14T12:54:14.410Z,38.67
2023-08-14T13:02:41.439Z,38.90
2023-08-14T13:05:31.459Z,38.92
2023-08-14T13:08:18.758Z,38.33
2023-08-14T13:11:05.545Z,38.45
2023-08-14T13:13:53.623Z,39.30
2023-08-14T13:16:40.884Z,39.05
2023-08-14T13:19:27.958Z,37.97
2023-08-14T13:22:17.356Z,38.48
2023-08-14T13:25:06.629Z,38.58
2023-08-14T13:27:57.298Z,38.03
2023-08-14T13:30:45.162Z,37.92
2023-08-14T13:33:32.068Z,38.20
2023-08-14T13:36:18.746Z,37.00
2023-08-14T13:39:07.238Z,37.47
2023-08-14T13:41:54.419Z,37.38
2023-08-14T13:44:41.487Z,37.28
2023-08-14T13:47:33.461Z,37.60
2023-08-14T13:53:15.097Z,37.40
2023-08-14T13:56:01.946Z,37.10
2023-08-14T13:58:48.900Z,37.19
2023-08-14T14:01:35.641Z,36.98
2023-08-14T14:04:22.682Z,37.02
2023-08-14T14:07:09.393Z,36.59
2023-08-14T14:09:56.315Z,36.37
2023-08-14T14:12:55.949Z,37.26
2023-08-14T14:15:49.419Z,37.35
2023-08-14T14:18:36.289Z,37.12
2023-08-14T14:21:22.990Z,36.84
2023-08-14T14:24:09.664Z,36.87
2023-08-14T14:27:00.972Z,36.54
2023-08-14T14:29:48.019Z,37.37
2023-08-14T14:32:34.932Z,37.30
2023-08-14T14:35:22.496Z,36.99
2023-08-14T14:38:10.755Z,36.60
2023-08-14T14:41:04.173Z,36.54
2023-08-14T14:43:51.170Z,38.05
2023-08-14T14:46:44.026Z,38.44
2023-08-14T14:49:30.973Z,38.16
2023-08-14T14:52:18.012Z,38.61
2023-08-14T14:55:07.838Z,38.02
2023-08-14T14:57:55.517Z,38.72
2023-08-14T15:00:42.419Z,39.10
2023-08-14T15:03:29.049Z,39.23
2023-08-14T15:06:16.204Z,38.50
2023-08-14T15:09:02.719Z,38.47
2023-08-14T15:11:49.783Z,38.33
2023-08-14T15:14:36.758Z,37.88
2023-08-14T15:17:23.873Z,38.98
2023-08-14T15:20:11.462Z,39.02
2023-08-14T15:22:58.541Z,39.26
2023-08-14T15:25:45.500Z,39.24
2023-08-14T15:28:33.421Z,39.08
2023-08-14T15:31:20.214Z,39.41
2023-08-14T15:34:07.973Z,39.81
2023-08-14T15:36:54.755Z,39.68
2023-08-14T15:39:41.577Z,39.64
2023-08-14T15:42:28.623Z,39.60
2023-08-14T15:45:15.270Z,39.80
2023-08-14T15:48:02.149Z,39.84
2023-08-14T15:50:51.236Z,39.81
2023-08-14T15:53:38.024Z,39.61
2023-08-14T15:56:25.054Z,40.20
2023-08-14T15:59:11.697Z,40.91
2023-08-14T16:01:58.774Z,40.80
2023-08-14T16:04:48.878Z,40.58
2023-08-14T16:07:36.119Z,40.50
2023-08-14T16:10:23.126Z,41.07
2023-08-14T16:13:10.100Z,41.28
2023-08-14T16:15:57.157Z,41.14
2023-08-14T16:18:44.156Z,40.99
2023-08-14T16:21:32.122Z,41.36
2023-08-14T16:24:18.928Z,42.17
2023-08-14T16:27:06.766Z,42.44
2023-08-14T16:29:53.668Z,42.75
2023-08-14T16:32:40.957Z,42.92
2023-08-14T16:35:31.534Z,43.04
2023-08-14T16:38:18.382Z,43.20
2023-08-14T16:41:05.321Z,43.33
2023-08-14T16:43:52.581Z,43.32
2023-08-14T16:46:39.391Z,43.61
2023-08-14T16:49:26.349Z,43.53
2023-08-14T16:52:16.366Z,43.72
2023-08-14T16:55:03.928Z,44.31
2023-08-14T16:57:50.787Z,44.49
2023-08-14T17:00:38.984Z,44.69
2023-08-14T17:03:26.214Z,45.08
2023-08-14T17:06:12.947Z,45.43
2023-08-14T17:09:01.238Z,45.59
2023-08-14T17:11:47.963Z,45.78
2023-08-14T17:14:35.256Z,46.25
2023-08-14T17:17:22.386Z,46.37
2023-08-14T17:20:13.088Z,46.96
2023-08-14T17:22:59.896Z,47.45
2023-08-14T17:25:54.152Z,47.88
2023-08-14T17:28:41.117Z,48.09
2023-08-14T17:31:27.860Z,48.22
2023-08-14T17:34:15.482Z,48.65
2023-08-14T17:37:02.718Z,48.93
2023-08-14T17:39:50.321Z,49.49
2023-08-14T17:42:40.124Z,49.49
2023-08-14T17:45:26.722Z,49.75
2023-08-14T17:48:13.824Z,49.81
2023-08-14T17:51:00.806Z,50.33
2023-08-14T17:53:47.789Z,50.57
2023-08-14T17:56:34.684Z,50.77
2023-08-14T17:59:21.511Z,51.02
2023-08-14T18:02:08.517Z,51.04
2023-08-14T18:04:55.448Z,51.40
2023-08-14T18:07:43.201Z,51.72
2023-08-14T18:10:30.126Z,52.31
2023-08-14T18:13:16.992Z,52.62
2023-08-14T18:16:06.071Z,52.76
2023-08-14T18:19:00.853Z,52.59
2023-08-14T18:21:54.985Z,52.81
2023-08-14T18:24:43.961Z,52.94
2023-08-14T18:27:30.577Z,52.83
2023-08-14T18:30:17.443Z,53.00
2023-08-14T18:33:04.962Z,53.23
2023-08-14T18:35:52.419Z,53.21
2023-08-14T18:38:39.098Z,53.37
2023-08-14T18:41:25.600Z,53.41
2023-08-14T18:44:12.675Z,53.63
2023-08-14T18:46:59.154Z,54.10
2023-08-14T18:49:47.053Z,54.28
2023-08-14T18:52:34.170Z,54.24
2023-08-14T18:55:24.168Z,54.00
2023-08-14T18:58:10.817Z,54.25
2023-08-14T19:00:57.617Z,55.19
2023-08-14T19:03:44.440Z,57.00
2023-08-14T19:06:31.029Z,57.62
2023-08-14T19:09:18.103Z,58.02
2023-08-14T19:12:07.649Z,58.40
2023-08-14T19:14:54.769Z,58.53
2023-08-14T19:17:41.351Z,58.63
2023-08-14T19:20:29.011Z,58.69
2023-08-14T19:23:15.804Z,58.96
2023-08-14T19:26:12.017Z,59.15
2023-08-14T19:29:05.544Z,59.45
2023-08-14T19:31:52.483Z,59.89
2023-08-14T19:34:39.418Z,60.08
2023-08-14T19:37:26.318Z,60.51
2023-08-14T19:40:13.465Z,60.68
2023-08-14T19:43:00.169Z,60.94
2023-08-14T19:45:47.030Z,61.35
2023-08-14T19:48:34.843Z,61.73
2023-08-14T19:51:22.164Z,62.37
2023-08-14T19:54:08.998Z,62.61
2023-08-14T19:56:55.980Z,62.77
2023-08-14T19:59:43.274Z,62.89
2023-08-14T20:02:30.166Z,62.86
2023-08-14T20:05:17.499Z,62.96
2023-08-14T20:08:08.048Z,63.06
2023-08-14T20:11:02.289Z,63.02
2023-08-14T20:13:51.860Z,63.15
2023-08-14T20:16:38.572Z,63.24
2023-08-14T20:19:25.348Z,63.05
2023-08-14T20:22:12.505Z,62.98
2023-08-14T20:24:59.527Z,62.96
2023-08-14T20:27:46.299Z,62.84
2023-08-14T20:30:40.308Z,62.72
2023-08-14T20:33:27.049Z,63.24
2023-08-14T20:36:24.342Z,63.74
2023-08-14T20:39:15.489Z,64.12
2023-08-14T20:42:02.505Z,64.25
2023-08-14T20:44:51.581Z,64.52
2023-08-14T20:47:38.790Z,64.51
2023-08-14T20:50:25.749Z,64.31
2023-08-14T20:53:14.757Z,64.53
2023-08-14T20:56:03.350Z,64.59
2023-08-14T20:58:52.583Z,64.75
2023-08-14T21:01:39.555Z,64.89
2023-08-14T21:04:29.121Z,64.96
2023-08-14T21:07:15.906Z,64.97
2023-08-14T21:10:03.988Z,65.11
2023-08-14T21:12:51.659Z,65.27
2023-08-14T21:15:38.860Z,65.10
2023-08-14T21:18:26.036Z,65.44
2023-08-14T21:21:12.857Z,65.62
2023-08-14T21:23:59.682Z,65.81
2023-08-14T21:26:46.781Z,66.19
2023-08-14T21:29:33.440Z,66.46
2023-08-14T21:32:23.109Z,66.56
2023-08-14T21:35:10.142Z,66.81
2023-08-14T21:37:57.031Z,67.01
2023-08-14T21:40:44.247Z,66.78
2023-08-14T21:43:31.553Z,66.81
2023-08-14T21:46:18.201Z,66.75
2023-08-14T21:49:04.919Z,67.06
2023-08-14T21:51:52.064Z,67.07
2023-08-14T21:54:40.230Z,67.16
2023-08-14T21:57:27.000Z,67.36
2023-08-14T22:00:14.469Z,67.41
2023-08-14T22:03:01.439Z,67.38
2023-08-14T22:05:48.014Z,67.50
2023-08-14T22:08:34.998Z,67.38
2023-08-14T22:11:21.920Z,66.75
2023-08-14T22:14:12.229Z,66.56
2023-08-14T22:16:58.972Z,67.12
2023-08-14T22:19:48.379Z,67.18
2023-08-14T22:22:35.360Z,67.14
2023-08-14T22:25:25.836Z,67.26
2023-08-14T22:28:12.223Z,67.51
2023-08-14T22:30:59.206Z,67.26
2023-08-14T22:33:46.006Z,67.75
2023-08-14T22:36:35.910Z,68.03
2023-08-14T22:39:23.084Z,68.25
2023-08-14T22:42:09.717Z,68.27
2023-08-14T22:44:56.355Z,68.24
2023-08-14T22:47:43.548Z,68.44
2023-08-14T22:50:31.416Z,69.17
2023-08-14T22:53:19.046Z,69.36
2023-08-14T22:56:06.300Z,69.47
2023-08-14T22:58:56.055Z,69.70
2023-08-14T23:01:43.028Z,69.67
2023-08-14T23:04:29.920Z,69.71
2023-08-14T23:07:16.817Z,69.51
2023-08-14T23:10:04.019Z,69.53
2023-08-14T23:12:50.640Z,69.70
2023-08-14T23:15:37.564Z,69.94
2023-08-14T23:18:27.098Z,70.17
2023-08-14T23:21:14.343Z,70.56
2023-08-14T23:24:01.386Z,70.81
2023-08-14T23:26:48.371Z,70.85
2023-08-14T23:29:34.951Z,70.80
2023-08-14T23:32:21.791Z,70.69
2023-08-14T23:35:09.640Z,71.07
2023-08-14T23:37:56.413Z,71.29
2023-08-14T23:40:43.192Z,71.37
2023-08-14T23:43:30.304Z,71.61
2023-08-14T23:46:17.342Z,71.68
2023-08-14T23:49:04.732Z,71.56
2023-08-14T23:51:51.517Z,71.30
2023-08-14T23:54:38.255Z,70.98
2023-08-14T23:57:25.109Z,70.91
